sensor_id;sensor_type;location;lat;lon;timestamp;P1;durP1;ratioP1;P2;durP2;ratioP2
17496;SDS011;62150;43.582;1.456;2023-09-12T05:22:18;8.13;;;3.95;;
17496;SDS011;62150;43.582;1.456;2023-09-12T05:24:46;8.18;;;3.85;;
17496;SDS011;62150;43.582;1.456;2023-09-12T05:27:14;7.85;;;3.83;;
17496;SDS011;62150;43.582;1.456;2023-09-12T05:29:42;8.80;;;4.10;;
17496;SDS011;62150;43.582;1.456;2023-09-12T05:32:10;7.15;;;3.83;;
17496;SDS011;62150;43.582;1.456;2023-09-12T05:34:37;8.65;;;3.83;;
17496;SDS011;62150;43.582;1.456;2023-09-12T05:37:05;7.57;;;3.80;;
17496;SDS011;62150;43.582;1.456;2023-09-12T05:39:34;8.40;;;4.38;;
17496;SDS011;62150;43.582;1.456;2023-09-12T05:42:01;7.53;;;3.80;;
17496;SDS011;62150;43.582;1.456;2023-09-12T05:44:29;7.72;;;4.03;;
17496;SDS011;62150;43.582;1.456;2023-09-12T05:46:57;8.77;;;4.00;;
17496;SDS011;62150;43.582;1.456;2023-09-12T05:49:25;6.95;;;3.80;;
17496;SDS011;62150;43.582;1.456;2023-09-12T05:51:52;9.55;;;4.07;;
17496;SDS011;62150;43.582;1.456;2023-09-12T05:54:20;8.18;;;3.72;;
17496;SDS011;62150;43.582;1.456;2023-09-12T05:56:49;8.85;;;3.97;;
17496;SDS011;62150;43.582;1.456;2023-09-12T05:59:17;8.73;;;4.20;;
17496;SDS011;62150;43.582;1.456;2023-09-12T06:01:45;9.23;;;4.28;;
17496;SDS011;62150;43.582;1.456;2023-09-12T06:04:13;8.18;;;4.18;;
17496;SDS011;62150;43.582;1.456;2023-09-12T06:06:41;8.75;;;4.13;;
17496;SDS011;62150;43.582;1.456;2023-09-12T06:09:08;8.68;;;4.28;;
17496;SDS011;62150;43.582;1.456;2023-09-12T06:11:36;8.27;;;4.10;;
17496;SDS011;62150;43.582;1.456;2023-09-12T06:14:05;8.20;;;4.45;;
17496;SDS011;62150;43.582;1.456;2023-09-12T06:16:32;9.40;;;4.28;;
17496;SDS011;62150;43.582;1.456;2023-09-12T06:19:00;8.00;;;4.22;;
17496;SDS011;62150;43.582;1.456;2023-09-12T06:21:28;9.52;;;4.35;;
17496;SDS011;62150;43.582;1.456;2023-09-12T06:24:08;8.07;;;3.90;;
17496;SDS011;62150;43.582;1.456;2023-09-12T06:26:37;7.22;;;4.03;;
17496;SDS011;62150;43.582;1.456;2023-09-12T06:29:06;7.85;;;4.00;;
17496;SDS011;62150;43.582;1.456;2023-09-12T06:31:34;8.50;;;4.10;;
17496;SDS011;62150;43.582;1.456;2023-09-12T06:34:02;7.88;;;4.00;;
17496;SDS011;62150;43.582;1.456;2023-09-12T06:36:30;8.30;;;4.22;;
17496;SDS011;62150;43.582;1.456;2023-09-12T06:38:57;9.68;;;4.20;;
17496;SDS011;62150;43.582;1.456;2023-09-12T06:41:26;8.05;;;4.15;;
17496;SDS011;62150;43.582;1.456;2023-09-12T06:43:54;8.05;;;3.92;;
17496;SDS011;62150;43.582;1.456;2023-09-12T06:46:25;8.13;;;4.35;;
17496;SDS011;62150;43.582;1.456;2023-09-12T06:48:52;8.27;;;3.85;;
17496;SDS011;62150;43.582;1.456;2023-09-12T06:51:23;8.48;;;4.20;;
17496;SDS011;62150;43.582;1.456;2023-09-12T06:53:51;9.02;;;4.20;;
17496;SDS011;62150;43.582;1.456;2023-09-12T06:56:19;7.93;;;4.03;;
17496;SDS011;62150;43.582;1.456;2023-09-12T06:58:46;9.90;;;4.47;;
17496;SDS011;62150;43.582;1.456;2023-09-12T07:01:14;9.02;;;4.15;;
17496;SDS011;62150;43.582;1.456;2023-09-12T07:03:43;8.23;;;3.90;;
17496;SDS011;62150;43.582;1.456;2023-09-12T07:06:10;8.13;;;3.97;;
17496;SDS011;62150;43.582;1.456;2023-09-12T07:08:39;8.50;;;3.92;;
17496;SDS011;62150;43.582;1.456;2023-09-12T07:11:06;9.25;;;4.22;;
17496;SDS011;62150;43.582;1.456;2023-09-12T07:13:34;8.25;;;4.10;;
17496;SDS011;62150;43.582;1.456;2023-09-12T07:16:01;7.80;;;3.78;;
17496;SDS011;62150;43.582;1.456;2023-09-12T07:18:29;7.68;;;3.92;;
17496;SDS011;62150;43.582;1.456;2023-09-12T07:21:00;8.05;;;3.85;;
17496;SDS011;62150;43.582;1.456;2023-09-12T07:23:29;8.32;;;3.90;;
17496;SDS011;62150;43.582;1.456;2023-09-12T07:25:57;8.93;;;4.10;;
17496;SDS011;62150;43.582;1.456;2023-09-12T07:28:25;7.68;;;3.90;;
17496;SDS011;62150;43.582;1.456;2023-09-12T07:30:53;9.20;;;4.10;;
17496;SDS011;62150;43.582;1.456;2023-09-12T07:33:21;8.27;;;4.07;;
17496;SDS011;62150;43.582;1.456;2023-09-12T07:35:49;7.65;;;3.95;;
17496;SDS011;62150;43.582;1.456;2023-09-12T07:38:21;8.13;;;3.88;;
17496;SDS011;62150;43.582;1.456;2023-09-12T07:40:48;7.90;;;3.92;;
17496;SDS011;62150;43.582;1.456;2023-09-12T07:43:16;8.45;;;3.95;;
17496;SDS011;62150;43.582;1.456;2023-09-12T07:45:43;7.20;;;3.90;;
17496;SDS011;62150;43.582;1.456;2023-09-12T07:48:11;8.02;;;3.92;;
17496;SDS011;62150;43.582;1.456;2023-09-12T07:50:39;8.77;;;4.00;;
17496;SDS011;62150;43.582;1.456;2023-09-12T07:53:07;8.02;;;3.90;;
17496;SDS011;62150;43.582;1.456;2023-09-12T07:55:37;10.10;;;4.47;;
17496;SDS011;62150;43.582;1.456;2023-09-12T07:58:10;10.45;;;5.05;;
17496;SDS011;62150;43.582;1.456;2023-09-12T08:00:38;11.15;;;5.65;;
17496;SDS011;62150;43.582;1.456;2023-09-12T08:03:06;10.07;;;5.22;;
17496;SDS011;62150;43.582;1.456;2023-09-12T08:05:34;9.93;;;5.07;;
17496;SDS011;62150;43.582;1.456;2023-09-12T08:08:01;9.77;;;5.30;;
17496;SDS011;62150;43.582;1.456;2023-09-12T08:10:29;10.18;;;5.20;;
17496;SDS011;62150;43.582;1.456;2023-09-12T08:12:58;9.05;;;4.93;;
17496;SDS011;62150;43.582;1.456;2023-09-12T08:15:26;10.10;;;4.90;;
17496;SDS011;62150;43.582;1.456;2023-09-12T08:17:53;10.65;;;5.45;;
17496;SDS011;62150;43.582;1.456;2023-09-12T08:20:21;10.43;;;4.90;;
17496;SDS011;62150;43.582;1.456;2023-09-12T08:22:48;10.55;;;5.40;;
17496;SDS011;62150;43.582;1.456;2023-09-12T08:25:16;10.52;;;5.13;;
17496;SDS011;62150;43.582;1.456;2023-09-12T08:27:43;10.45;;;5.18;;
17496;SDS011;62150;43.582;1.456;2023-09-12T08:30:12;10.32;;;5.18;;
17496;SDS011;62150;43.582;1.456;2023-09-12T08:32:41;12.18;;;5.80;;
17496;SDS011;62150;43.582;1.456;2023-09-12T08:35:10;10.55;;;5.47;;
17496;SDS011;62150;43.582;1.456;2023-09-12T08:37:38;10.65;;;5.20;;
17496;SDS011;62150;43.582;1.456;2023-09-12T08:40:07;10.25;;;5.45;;
17496;SDS011;62150;43.582;1.456;2023-09-12T08:42:39;11.40;;;5.38;;
17496;SDS011;62150;43.582;1.456;2023-09-12T08:45:08;11.52;;;5.57;;
17496;SDS011;62150;43.582;1.456;2023-09-12T08:47:40;11.93;;;6.00;;
17496;SDS011;62150;43.582;1.456;2023-09-12T08:50:10;12.05;;;5.88;;
17496;SDS011;62150;43.582;1.456;2023-09-12T08:52:39;11.40;;;5.75;;
17496;SDS011;62150;43.582;1.456;2023-09-12T08:55:08;11.82;;;6.10;;
17496;SDS011;62150;43.582;1.456;2023-09-12T08:57:36;12.50;;;5.43;;
17496;SDS011;62150;43.582;1.456;2023-09-12T09:00:05;10.77;;;5.53;;
17496;SDS011;62150;43.582;1.456;2023-09-12T09:02:36;10.07;;;5.22;;
17496;SDS011;62150;43.582;1.456;2023-09-12T09:05:05;11.57;;;5.63;;
17496;SDS011;62150;43.582;1.456;2023-09-12T09:07:34;11.65;;;5.30;;
17496;SDS011;62150;43.582;1.456;2023-09-12T09:10:03;11.25;;;5.07;;
17496;SDS011;62150;43.582;1.456;2023-09-12T09:12:32;9.80;;;5.13;;
17496;SDS011;62150;43.582;1.456;2023-09-12T09:15:21;11.45;;;5.30;;
17496;SDS011;62150;43.582;1.456;2023-09-12T09:17:54;11.23;;;5.65;;
17496;SDS011;62150;43.582;1.456;2023-09-12T09:20:26;10.48;;;5.88;;
17496;SDS011;62150;43.582;1.456;2023-09-12T09:22:56;11.85;;;5.57;;
17496;SDS011;62150;43.582;1.456;2023-09-12T09:25:28;12.23;;;5.60;;
17496;SDS011;62150;43.582;1.456;2023-09-12T09:27:56;10.68;;;5.43;;
17496;SDS011;62150;43.582;1.456;2023-09-12T09:30:40;10.80;;;5.53;;
17496;SDS011;62150;43.582;1.456;2023-09-12T09:33:10;12.13;;;5.72;;
17496;SDS011;62150;43.582;1.456;2023-09-12T09:35:39;10.70;;;5.82;;
17496;SDS011;62150;43.582;1.456;2023-09-12T09:38:08;10.73;;;5.32;;
17496;SDS011;62150;43.582;1.456;2023-09-12T09:40:41;10.98;;;5.57;;
17496;SDS011;62150;43.582;1.456;2023-09-12T09:43:09;9.70;;;5.50;;
17496;SDS011;62150;43.582;1.456;2023-09-12T09:45:42;12.95;;;5.88;;
17496;SDS011;62150;43.582;1.456;2023-09-12T09:48:12;11.95;;;5.75;;
17496;SDS011;62150;43.582;1.456;2023-09-12T09:50:45;11.85;;;5.68;;
17496;SDS011;62150;43.582;1.456;2023-09-12T09:53:13;9.18;;;5.05;;
17496;SDS011;62150;43.582;1.456;2023-09-12T09:55:40;9.98;;;4.65;;
17496;SDS011;62150;43.582;1.456;2023-09-12T09:58:10;10.73;;;4.93;;
17496;SDS011;62150;43.582;1.456;2023-09-12T10:00:42;11.38;;;4.85;;
17496;SDS011;62150;43.582;1.456;2023-09-12T10:03:14;9.68;;;4.70;;
17496;SDS011;62150;43.582;1.456;2023-09-12T10:05:48;10.23;;;5.00;;
17496;SDS011;62150;43.582;1.456;2023-09-12T10:08:19;11.00;;;4.72;;
17496;SDS011;62150;43.582;1.456;2023-09-12T10:10:50;9.10;;;4.85;;
17496;SDS011;62150;43.582;1.456;2023-09-12T10:13:18;9.07;;;4.53;;
17496;SDS011;62150;43.582;1.456;2023-09-12T10:15:47;8.75;;;4.68;;
17496;SDS011;62150;43.582;1.456;2023-09-12T10:18:21;9.57;;;4.55;;
17496;SDS011;62150;43.582;1.456;2023-09-12T10:20:52;8.45;;;4.40;;
17496;SDS011;62150;43.582;1.456;2023-09-12T10:23:23;10.50;;;4.45;;
17496;SDS011;62150;43.582;1.456;2023-09-12T10:25:56;9.15;;;4.68;;
17496;SDS011;62150;43.582;1.456;2023-09-12T10:28:24;9.65;;;4.65;;
17496;SDS011;62150;43.582;1.456;2023-09-12T10:30:52;8.45;;;4.30;;
17496;SDS011;62150;43.582;1.456;2023-09-12T10:33:23;10.02;;;4.65;;
17496;SDS011;62150;43.582;1.456;2023-09-12T10:35:56;9.55;;;4.50;;
17496;SDS011;62150;43.582;1.456;2023-09-12T10:38:26;10.32;;;4.80;;
17496;SDS011;62150;43.582;1.456;2023-09-12T10:40:54;8.77;;;4.57;;
17496;SDS011;62150;43.582;1.456;2023-09-12T10:43:31;9.50;;;4.82;;
17496;SDS011;62150;43.582;1.456;2023-09-12T10:46:01;9.98;;;4.60;;
17496;SDS011;62150;43.582;1.456;2023-09-12T10:48:30;9.68;;;5.05;;
17496;SDS011;62150;43.582;1.456;2023-09-12T10:50:58;9.50;;;4.93;;
17496;SDS011;62150;43.582;1.456;2023-09-12T10:53:28;8.65;;;4.40;;
17496;SDS011;62150;43.582;1.456;2023-09-12T10:55:59;9.30;;;4.75;;
17496;SDS011;62150;43.582;1.456;2023-09-12T10:58:27;9.20;;;4.72;;
17496;SDS011;62150;43.582;1.456;2023-09-12T11:03:54;8.98;;;4.47;;
17496;SDS011;62150;43.582;1.456;2023-09-12T11:06:22;8.00;;;4.10;;
17496;SDS011;62150;43.582;1.456;2023-09-12T11:11:43;9.70;;;4.65;;
17496;SDS011;62150;43.582;1.456;2023-09-12T11:14:12;10.13;;;4.47;;
17496;SDS011;62150;43.582;1.456;2023-09-12T11:16:41;9.25;;;4.32;;
17496;SDS011;62150;43.582;1.456;2023-09-12T11:19:15;9.57;;;4.72;;
17496;SDS011;62150;43.582;1.456;2023-09-12T11:21:44;9.00;;;4.38;;
17496;SDS011;62150;43.582;1.456;2023-09-12T11:24:13;9.00;;;4.50;;
17496;SDS011;62150;43.582;1.456;2023-09-12T11:26:56;9.18;;;4.60;;
17496;SDS011;62150;43.582;1.456;2023-09-12T11:29:28;9.88;;;4.93;;
17496;SDS011;62150;43.582;1.456;2023-09-12T11:32:01;8.93;;;4.60;;
17496;SDS011;62150;43.582;1.456;2023-09-12T11:34:35;10.55;;;4.90;;
17496;SDS011;62150;43.582;1.456;2023-09-12T11:37:26;9.98;;;4.28;;
17496;SDS011;62150;43.582;1.456;2023-09-12T11:39:57;9.02;;;4.20;;
17496;SDS011;62150;43.582;1.456;2023-09-12T11:42:25;9.55;;;4.75;;
17496;SDS011;62150;43.582;1.456;2023-09-12T11:44:54;10.02;;;4.57;;
17496;SDS011;62150;43.582;1.456;2023-09-12T11:47:21;9.30;;;4.60;;
17496;SDS011;62150;43.582;1.456;2023-09-12T11:49:50;10.88;;;4.68;;
17496;SDS011;62150;43.582;1.456;2023-09-12T11:52:18;9.25;;;4.47;;
17496;SDS011;62150;43.582;1.456;2023-09-12T11:54:46;9.27;;;4.72;;
17496;SDS011;62150;43.582;1.456;2023-09-12T11:57:14;9.25;;;4.60;;
17496;SDS011;62150;43.582;1.456;2023-09-12T11:59:42;8.88;;;4.85;;
17496;SDS011;62150;43.582;1.456;2023-09-12T12:02:13;9.73;;;4.43;;
17496;SDS011;62150;43.582;1.456;2023-09-12T12:04:41;9.70;;;5.05;;
17496;SDS011;62150;43.582;1.456;2023-09-12T12:07:10;9.35;;;4.65;;
17496;SDS011;62150;43.582;1.456;2023-09-12T12:09:39;10.07;;;4.47;;
17496;SDS011;62150;43.582;1.456;2023-09-12T12:12:09;9.38;;;4.78;;
17496;SDS011;62150;43.582;1.456;2023-09-12T12:14:38;9.32;;;4.80;;
17496;SDS011;62150;43.582;1.456;2023-09-12T12:17:07;9.98;;;4.75;;
17496;SDS011;62150;43.582;1.456;2023-09-12T12:19:35;8.98;;;4.72;;
17496;SDS011;62150;43.582;1.456;2023-09-12T12:22:03;8.65;;;4.45;;
17496;SDS011;62150;43.582;1.456;2023-09-12T12:24:40;11.88;;;5.50;;
17496;SDS011;62150;43.582;1.456;2023-09-12T12:27:10;16.90;;;9.75;;
17496;SDS011;62150;43.582;1.456;2023-09-12T12:29:38;18.77;;;11.10;;
17496;SDS011;62150;43.582;1.456;2023-09-12T12:32:05;16.35;;;9.30;;
17496;SDS011;62150;43.582;1.456;2023-09-12T12:34:34;18.60;;;10.10;;
17496;SDS011;62150;43.582;1.456;2023-09-12T12:37:02;14.50;;;7.03;;
17496;SDS011;62150;43.582;1.456;2023-09-12T12:39:31;11.60;;;5.90;;
17496;SDS011;62150;43.582;1.456;2023-09-12T12:42:03;10.55;;;5.60;;
17496;SDS011;62150;43.582;1.456;2023-09-12T12:44:33;9.65;;;4.90;;
17496;SDS011;62150;43.582;1.456;2023-09-12T12:47:05;10.55;;;5.07;;
17496;SDS011;62150;43.582;1.456;2023-09-12T12:49:37;9.02;;;4.78;;
17496;SDS011;62150;43.582;1.456;2023-09-12T12:52:05;9.20;;;4.90;;
17496;SDS011;62150;43.582;1.456;2023-09-12T12:54:35;9.40;;;4.57;;
17496;SDS011;62150;43.582;1.456;2023-09-12T12:57:04;10.15;;;4.70;;
17496;SDS011;62150;43.582;1.456;2023-09-12T12:59:32;7.95;;;4.63;;
17496;SDS011;62150;43.582;1.456;2023-09-12T13:02:01;9.07;;;4.50;;
17496;SDS011;62150;43.582;1.456;2023-09-12T13:04:34;9.13;;;4.82;;
17496;SDS011;62150;43.582;1.456;2023-09-12T13:07:03;11.02;;;4.88;;
17496;SDS011;62150;43.582;1.456;2023-09-12T13:09:30;9.30;;;4.70;;
17496;SDS011;62150;43.582;1.456;2023-09-12T13:11:59;10.23;;;4.95;;
17496;SDS011;62150;43.582;1.456;2023-09-12T13:14:28;9.00;;;4.50;;
17496;SDS011;62150;43.582;1.456;2023-09-12T13:16:57;9.38;;;4.85;;
17496;SDS011;62150;43.582;1.456;2023-09-12T13:19:25;8.75;;;4.32;;
17496;SDS011;62150;43.582;1.456;2023-09-12T13:21:52;9.57;;;4.97;;
17496;SDS011;62150;43.582;1.456;2023-09-12T13:24:20;10.18;;;4.85;;
17496;SDS011;62150;43.582;1.456;2023-09-12T13:26:48;9.70;;;4.53;;
17496;SDS011;62150;43.582;1.456;2023-09-12T13:29:15;9.07;;;4.82;;
17496;SDS011;62150;43.582;1.456;2023-09-12T13:31:44;9.60;;;4.82;;
17496;SDS011;62150;43.582;1.456;2023-09-12T13:34:12;10.23;;;5.07;;
17496;SDS011;62150;43.582;1.456;2023-09-12T13:36:39;8.77;;;4.53;;
17496;SDS011;62150;43.582;1.456;2023-09-12T13:39:07;9.00;;;4.55;;
17496;SDS011;62150;43.582;1.456;2023-09-12T13:41:37;9.32;;;4.97;;
17496;SDS011;62150;43.582;1.456;2023-09-12T13:44:05;9.38;;;4.82;;
17496;SDS011;62150;43.582;1.456;2023-09-12T13:46:32;9.88;;;4.85;;
17496;SDS011;62150;43.582;1.456;2023-09-12T13:49:01;9.73;;;4.93;;
17496;SDS011;62150;43.582;1.456;2023-09-12T13:51:29;9.80;;;5.22;;
17496;SDS011;62150;43.582;1.456;2023-09-12T13:53:57;10.23;;;5.10;;
17496;SDS011;62150;43.582;1.456;2023-09-12T13:56:24;9.15;;;4.60;;
17496;SDS011;62150;43.582;1.456;2023-09-12T13:58:52;8.77;;;5.05;;
17496;SDS011;62150;43.582;1.456;2023-09-12T14:01:19;9.90;;;4.80;;
17496;SDS011;62150;43.582;1.456;2023-09-12T14:03:49;9.85;;;5.20;;
17496;SDS011;62150;43.582;1.456;2023-09-12T14:06:19;9.57;;;4.78;;
17496;SDS011;62150;43.582;1.456;2023-09-12T14:08:47;9.70;;;4.80;;
17496;SDS011;62150;43.582;1.456;2023-09-12T14:11:14;10.00;;;5.05;;
17496;SDS011;62150;43.582;1.456;2023-09-12T14:13:42;8.98;;;4.88;;
17496;SDS011;62150;43.582;1.456;2023-09-12T14:16:09;11.18;;;4.95;;
17496;SDS011;62150;43.582;1.456;2023-09-12T14:18:37;9.23;;;4.72;;
17496;SDS011;62150;43.582;1.456;2023-09-12T14:21:05;9.98;;;5.40;;
17496;SDS011;62150;43.582;1.456;2023-09-12T14:23:34;9.52;;;4.85;;
17496;SDS011;62150;43.582;1.456;2023-09-12T14:26:01;10.00;;;5.30;;
17496;SDS011;62150;43.582;1.456;2023-09-12T14:28:29;10.30;;;5.30;;
17496;SDS011;62150;43.582;1.456;2023-09-12T14:30:57;9.25;;;5.00;;
17496;SDS011;62150;43.582;1.456;2023-09-12T14:33:25;9.00;;;4.80;;
17496;SDS011;62150;43.582;1.456;2023-09-12T14:35:53;9.60;;;4.60;;
17496;SDS011;62150;43.582;1.456;2023-09-12T14:38:20;10.23;;;5.10;;
17496;SDS011;62150;43.582;1.456;2023-09-12T14:40:49;9.50;;;4.90;;
17496;SDS011;62150;43.582;1.456;2023-09-12T14:43:18;10.25;;;4.60;;
17496;SDS011;62150;43.582;1.456;2023-09-12T14:45:46;10.23;;;4.72;;
17496;SDS011;62150;43.582;1.456;2023-09-12T14:48:14;9.73;;;4.63;;
17496;SDS011;62150;43.582;1.456;2023-09-12T14:50:41;9.20;;;4.65;;
17496;SDS011;62150;43.582;1.456;2023-09-12T14:53:10;10.45;;;4.97;;
17496;SDS011;62150;43.582;1.456;2023-09-12T14:55:39;9.43;;;4.80;;
17496;SDS011;62150;43.582;1.456;2023-09-12T14:58:08;10.00;;;5.05;;
17496;SDS011;62150;43.582;1.456;2023-09-12T15:00:35;10.35;;;4.97;;
17496;SDS011;62150;43.582;1.456;2023-09-12T15:03:03;9.73;;;4.90;;
17496;SDS011;62150;43.582;1.456;2023-09-12T15:05:31;9.15;;;4.78;;
17496;SDS011;62150;43.582;1.456;2023-09-12T15:07:58;10.05;;;5.18;;
17496;SDS011;62150;43.582;1.456;2023-09-12T15:10:26;9.35;;;4.90;;
17496;SDS011;62150;43.582;1.456;2023-09-12T15:12:53;9.30;;;4.90;;
17496;SDS011;62150;43.582;1.456;2023-09-12T15:15:22;8.90;;;4.60;;
17496;SDS011;62150;43.582;1.456;2023-09-12T15:17:50;7.80;;;4.63;;
17496;SDS011;62150;43.582;1.456;2023-09-12T15:20:17;9.50;;;4.95;;
17496;SDS011;62150;43.582;1.456;2023-09-12T15:22:45;9.18;;;4.80;;
17496;SDS011;62150;43.582;1.456;2023-09-12T15:25:12;9.48;;;4.88;;
17496;SDS011;62150;43.582;1.456;2023-09-12T15:27:40;8.05;;;4.28;;
17496;SDS011;62150;43.582;1.456;2023-09-12T15:30:07;9.60;;;4.85;;
17496;SDS011;62150;43.582;1.456;2023-09-12T15:32:37;10.07;;;4.70;;
17496;SDS011;62150;43.582;1.456;2023-09-12T15:35:05;8.77;;;4.50;;
17496;SDS011;62150;43.582;1.456;2023-09-12T15:37:33;8.25;;;4.38;;
17496;SDS011;62150;43.582;1.456;2023-09-12T15:40:01;8.20;;;4.63;;
17496;SDS011;62150;43.582;1.456;2023-09-12T15:42:30;8.02;;;4.40;;
17496;SDS011;62150;43.582;1.456;2023-09-12T15:44:57;8.48;;;4.43;;
17496;SDS011;62150;43.582;1.456;2023-09-12T15:47:25;9.93;;;4.57;;
17496;SDS011;62150;43.582;1.456;2023-09-12T15:49:54;8.93;;;4.65;;
17496;SDS011;62150;43.582;1.456;2023-09-12T15:52:22;8.65;;;4.72;;
17496;SDS011;62150;43.582;1.456;2023-09-12T15:54:49;9.02;;;4.68;;
17496;SDS011;62150;43.582;1.456;2023-09-12T15:57:17;9.35;;;4.75;;
17496;SDS011;62150;43.582;1.456;2023-09-12T15:59:48;8.82;;;4.45;;
17496;SDS011;62150;43.582;1.456;2023-09-12T16:02:15;10.98;;;4.82;;
17496;SDS011;62150;43.582;1.456;2023-09-12T16:04:43;9.98;;;5.05;;
17496;SDS011;62150;43.582;1.456;2023-09-12T16:07:12;14.07;;;5.85;;
17496;SDS011;62150;43.582;1.456;2023-09-12T16:09:39;9.35;;;4.70;;
17496;SDS011;62150;43.582;1.456;2023-09-12T16:12:07;9.40;;;4.80;;
17496;SDS011;62150;43.582;1.456;2023-09-12T16:14:34;9.50;;;5.00;;
17496;SDS011;62150;43.582;1.456;2023-09-12T16:17:02;9.18;;;4.85;;
17496;SDS011;62150;43.582;1.456;2023-09-12T16:19:30;10.65;;;4.75;;
17496;SDS011;62150;43.582;1.456;2023-09-12T16:21:57;8.50;;;4.63;;
17496;SDS011;62150;43.582;1.456;2023-09-12T16:24:26;12.38;;;4.85;;
17496;SDS011;62150;43.582;1.456;2023-09-12T16:26:54;8.90;;;4.82;;
17496;SDS011;62150;43.582;1.456;2023-09-12T16:29:25;8.68;;;4.75;;
17496;SDS011;62150;43.582;1.456;2023-09-12T16:31:53;9.07;;;4.60;;
17496;SDS011;62150;43.582;1.456;2023-09-12T16:34:20;9.10;;;4.78;;
17496;SDS011;62150;43.582;1.456;2023-09-12T16:36:48;8.20;;;4.43;;
17496;SDS011;62150;43.582;1.456;2023-09-12T16:39:16;9.80;;;4.85;;
17496;SDS011;62150;43.582;1.456;2023-09-12T16:41:44;9.13;;;4.72;;
17496;SDS011;62150;43.582;1.456;2023-09-12T16:44:12;7.68;;;4.10;;
17496;SDS011;62150;43.582;1.456;2023-09-12T16:46:40;8.75;;;4.22;;
17496;SDS011;62150;43.582;1.456;2023-09-12T16:49:07;8.00;;;4.15;;
17496;SDS011;62150;43.582;1.456;2023-09-12T16:51:35;7.90;;;4.05;;
17496;SDS011;62150;43.582;1.456;2023-09-12T16:54:02;7.03;;;3.90;;
17496;SDS011;62150;43.582;1.456;2023-09-12T16:56:30;6.60;;;3.78;;
17496;SDS011;62150;43.582;1.456;2023-09-12T16:58:59;8.38;;;4.20;;
17496;SDS011;62150;43.582;1.456;2023-09-12T17:01:27;6.93;;;3.80;;
17496;SDS011;62150;43.582;1.456;2023-09-12T17:03:58;7.43;;;3.80;;
17496;SDS011;62150;43.582;1.456;2023-09-12T17:06:29;7.85;;;4.05;;
17496;SDS011;62150;43.582;1.456;2023-09-12T17:08:57;6.72;;;3.83;;
17496;SDS011;62150;43.582;1.456;2023-09-12T17:11:28;7.47;;;4.05;;
17496;SDS011;62150;43.582;1.456;2023-09-12T17:13:56;7.80;;;3.92;;
17496;SDS011;62150;43.582;1.456;2023-09-12T17:16:25;7.00;;;3.83;;
17496;SDS011;62150;43.582;1.456;2023-09-12T17:18:53;7.10;;;3.80;;
17496;SDS011;62150;43.582;1.456;2023-09-12T17:21:21;8.02;;;4.10;;
17496;SDS011;62150;43.582;1.456;2023-09-12T17:23:49;7.40;;;4.10;;
17496;SDS011;62150;43.582;1.456;2023-09-12T17:26:16;7.47;;;3.58;;
17496;SDS011;62150;43.582;1.456;2023-09-12T17:28:44;6.50;;;3.50;;
17496;SDS011;62150;43.582;1.456;2023-09-12T17:31:11;5.75;;;3.38;;
17496;SDS011;62150;43.582;1.456;2023-09-12T17:33:41;6.93;;;3.63;;
17496;SDS011;62150;43.582;1.456;2023-09-12T17:36:09;7.28;;;3.78;;
17496;SDS011;62150;43.582;1.456;2023-09-12T17:38:36;8.63;;;3.67;;
17496;SDS011;62150;43.582;1.456;2023-09-12T17:41:03;6.75;;;3.72;;
17496;SDS011;62150;43.582;1.456;2023-09-12T17:43:31;7.28;;;3.50;;
17496;SDS011;62150;43.582;1.456;2023-09-12T17:45:58;6.55;;;3.60;;
17496;SDS011;62150;43.582;1.456;2023-09-12T17:48:29;6.93;;;3.65;;
17496;SDS011;62150;43.582;1.456;2023-09-12T17:50:59;7.00;;;3.70;;
17496;SDS011;62150;43.582;1.456;2023-09-12T17:53:27;6.28;;;3.33;;
17496;SDS011;62150;43.582;1.456;2023-09-12T17:55:54;7.13;;;3.72;;
17496;SDS011;62150;43.582;1.456;2023-09-12T17:58:22;7.40;;;3.53;;
17496;SDS011;62150;43.582;1.456;2023-09-12T18:00:55;7.35;;;3.40;;
17496;SDS011;62150;43.582;1.456;2023-09-12T18:03:23;6.28;;;3.30;;
17496;SDS011;62150;43.582;1.456;2023-09-12T18:05:51;6.35;;;3.53;;
17496;SDS011;62150;43.582;1.456;2023-09-12T18:08:20;4.75;;;3.00;;
17496;SDS011;62150;43.582;1.456;2023-09-12T18:10:48;5.32;;;2.97;;
17496;SDS011;62150;43.582;1.456;2023-09-12T18:13:16;5.38;;;2.97;;
17496;SDS011;62150;43.582;1.456;2023-09-12T18:15:43;5.00;;;2.97;;
17496;SDS011;62150;43.582;1.456;2023-09-12T18:18:11;5.95;;;3.00;;
17496;SDS011;62150;43.582;1.456;2023-09-12T18:20:38;4.90;;;2.83;;
17496;SDS011;62150;43.582;1.456;2023-09-12T18:23:06;6.30;;;3.05;;
17496;SDS011;62150;43.582;1.456;2023-09-12T18:25:35;6.90;;;2.97;;
17496;SDS011;62150;43.582;1.456;2023-09-12T18:28:03;7.20;;;3.15;;
17496;SDS011;62150;43.582;1.456;2023-09-12T18:30:31;7.03;;;3.00;;
17496;SDS011;62150;43.582;1.456;2023-09-12T18:32:58;6.57;;;3.30;;
17496;SDS011;62150;43.582;1.456;2023-09-12T18:35:27;4.20;;;2.55;;
17496;SDS011;62150;43.582;1.456;2023-09-12T18:37:55;5.57;;;2.63;;
17496;SDS011;62150;43.582;1.456;2023-09-12T18:40:24;4.53;;;2.55;;
17496;SDS011;62150;43.582;1.456;2023-09-12T18:42:54;5.60;;;2.50;;
17496;SDS011;62150;43.582;1.456;2023-09-12T18:45:22;4.45;;;2.40;;
17496;SDS011;62150;43.582;1.456;2023-09-12T18:47:49;3.35;;;2.20;;
17496;SDS011;62150;43.582;1.456;2023-09-12T18:50:17;4.32;;;2.30;;
17496;SDS011;62150;43.582;1.456;2023-09-12T18:52:44;4.53;;;1.95;;
17496;SDS011;62150;43.582;1.456;2023-09-12T18:55:12;4.72;;;2.30;;
17496;SDS011;62150;43.582;1.456;2023-09-12T18:57:40;5.00;;;2.30;;
17496;SDS011;62150;43.582;1.456;2023-09-12T19:00:12;4.70;;;2.50;;
17496;SDS011;62150;43.582;1.456;2023-09-12T19:02:41;4.13;;;2.20;;
17496;SDS011;62150;43.582;1.456;2023-09-12T19:05:08;4.75;;;2.20;;
17496;SDS011;62150;43.582;1.456;2023-09-12T19:07:36;5.50;;;2.22;;
17496;SDS011;62150;43.582;1.456;2023-09-12T19:10:03;5.47;;;2.00;;
17496;SDS011;62150;43.582;1.456;2023-09-12T19:12:32;3.78;;;2.20;;
17496;SDS011;62150;43.582;1.456;2023-09-12T19:15:00;4.75;;;2.20;;
17496;SDS011;62150;43.582;1.456;2023-09-12T19:17:30;4.50;;;2.45;;
17496;SDS011;62150;43.582;1.456;2023-09-12T19:19:57;5.65;;;2.60;;
17496;SDS011;62150;43.582;1.456;2023-09-12T19:22:25;6.50;;;2.90;;
17496;SDS011;62150;43.582;1.456;2023-09-12T19:24:52;5.63;;;2.67;;
17496;SDS011;62150;43.582;1.456;2023-09-12T19:27:22;5.38;;;2.70;;
17496;SDS011;62150;43.582;1.456;2023-09-12T19:29:51;5.70;;;2.75;;
17496;SDS011;62150;43.582;1.456;2023-09-12T19:32:19;6.30;;;2.65;;
17496;SDS011;62150;43.582;1.456;2023-09-12T19:34:49;6.53;;;2.85;;
17496;SDS011;62150;43.582;1.456;2023-09-12T19:37:16;5.10;;;2.80;;
17496;SDS011;62150;43.582;1.456;2023-09-12T19:39:44;5.70;;;2.85;;
17496;SDS011;62150;43.582;1.456;2023-09-12T19:42:11;4.53;;;2.50;;
17496;SDS011;62150;43.582;1.456;2023-09-12T19:44:39;4.15;;;2.30;;
17496;SDS011;62150;43.582;1.456;2023-09-12T19:47:11;5.10;;;2.60;;
17496;SDS011;62150;43.582;1.456;2023-09-12T19:49:40;4.90;;;2.10;;
17496;SDS011;62150;43.582;1.456;2023-09-12T19:52:09;5.30;;;2.30;;
17496;SDS011;62150;43.582;1.456;2023-09-12T19:54:37;4.20;;;1.98;;
17496;SDS011;62150;43.582;1.456;2023-09-12T19:57:05;2.75;;;2.00;;
17496;SDS011;62150;43.582;1.456;2023-09-12T19:59:33;4.68;;;2.05;;
17496;SDS011;62150;43.582;1.456;2023-09-12T20:02:01;4.25;;;2.20;;
17496;SDS011;62150;43.582;1.456;2023-09-12T20:04:29;4.88;;;2.15;;
17496;SDS011;62150;43.582;1.456;2023-09-12T20:06:57;4.30;;;2.15;;
17496;SDS011;62150;43.582;1.456;2023-09-12T20:09:26;4.72;;;2.30;;
17496;SDS011;62150;43.582;1.456;2023-09-12T20:11:54;3.45;;;2.25;;
17496;SDS011;62150;43.582;1.456;2023-09-12T20:14:22;4.20;;;2.20;;
17496;SDS011;62150;43.582;1.456;2023-09-12T20:16:50;5.05;;;2.33;;
17496;SDS011;62150;43.582;1.456;2023-09-12T20:19:17;4.97;;;2.25;;
17496;SDS011;62150;43.582;1.456;2023-09-12T20:21:45;4.57;;;2.38;;